Lerwick, United Kingdom
Current Conditions -  °F | °C
As of 6:20 AM on Wednesday 28 Jan 2015 (Local Time) from EGPB Reporting Station
Scattered Clouds Scattered Clouds  
Wind Chill: 36°   Ceiling: Unl
Heat Index: 45°   Visibility: 6mi
Dew Point: 43°   Wind: 22mph
Humidity: 93%   Direction: 220°SW
Pressure: 28.94"   Gusts: NA
Location:  60.15°N, 1.15°W
Report Text: EGPB 280620Z 22019KT 9000 FEW014 SCT020 07/06 Q0980 NOSIG
Loading
Personal Weather Stations






























Interactive Weather Map New forecast layout! Learn more

10-Day Weather Forecast

Advertisements
Track Severe Weather on mobile